createdAt,value
2022-09-12T00:02:47.899Z,98051.97
2022-09-12T00:05:42.575Z,98054.19
2022-09-12T00:08:31.003Z,98058.63
2022-09-12T00:11:19.733Z,98056.41
2022-09-12T00:14:10.312Z,98045.63
2022-09-12T00:16:59.618Z,98045.94
2022-09-12T00:19:47.916Z,98054.81
2022-09-12T00:22:38.626Z,98053.88
2022-09-12T00:25:27.017Z,98053.06
2022-09-12T00:28:17.733Z,98050.50
2022-09-12T00:31:08.309Z,98049.91
2022-09-12T00:34:00.787Z,98058.72
2022-09-12T00:36:49.101Z,98067.38
2022-09-12T00:39:39.167Z,98053.97
2022-09-12T00:42:27.680Z,98065.91
2022-09-12T00:45:24.316Z,98063.63
2022-09-12T00:48:22.886Z,98067.63
2022-09-12T00:51:11.988Z,98056.03
2022-09-12T00:54:04.169Z,98064.63
2022-09-12T00:56:57.241Z,98063.06
2022-09-12T00:59:50.460Z,98057.75
2022-09-12T01:02:39.151Z,98062.13
2022-09-12T01:05:29.432Z,98062.13
2022-09-12T01:08:18.841Z,98069.44
2022-09-12T01:11:08.064Z,98064.97
2022-09-12T01:13:57.964Z,98064.22
2022-09-12T01:16:47.200Z,98046.84
2022-09-12T01:20:10.672Z,98058.41
2022-09-12T01:23:13.134Z,98053.81
2022-09-12T01:26:22.577Z,98051.25
2022-09-12T01:29:33.632Z,98061.84
2022-09-12T01:32:32.730Z,98062.97
2022-09-12T01:35:27.516Z,98061.03
2022-09-12T01:38:25.827Z,98059.16
2022-09-12T01:41:25.473Z,98056.56
2022-09-12T01:44:24.980Z,98063.03
2022-09-12T01:47:19.100Z,98061.13
2022-09-12T01:50:15.190Z,98060.16
2022-09-12T01:53:08.306Z,98075.34
2022-09-12T01:56:01.699Z,98070.13
2022-09-12T01:58:54.403Z,98069.47
2022-09-12T02:01:55.115Z,98072.88
2022-09-12T02:04:52.232Z,98078.50
2022-09-12T02:07:46.968Z,98080.69
2022-09-12T02:10:43.530Z,98092.56
2022-09-12T02:13:37.086Z,98085.78
2022-09-12T02:16:32.188Z,98074.97
2022-09-12T02:19:24.016Z,98068.25
2022-09-12T02:22:17.069Z,98080.31
2022-09-12T02:25:10.494Z,98077.16
2022-09-12T02:28:06.004Z,98074.81
2022-09-12T02:31:02.696Z,98067.75
2022-09-12T02:34:05.216Z,98066.56
2022-09-12T02:37:02.530Z,98073.84
2022-09-12T02:39:51.113Z,98059.09
2022-09-12T02:42:41.088Z,98057.25
2022-09-12T02:45:29.871Z,98053.69
2022-09-12T02:48:23.201Z,98062.72
2022-09-12T02:51:12.143Z,98060.97
2022-09-12T02:54:00.902Z,98062.41
2022-09-12T02:56:49.405Z,98056.00
2022-09-12T02:59:39.135Z,98066.19
2022-09-12T03:02:36.836Z,98059.72
2022-09-12T03:05:30.568Z,98066.50
2022-09-12T03:08:39.529Z,98067.63
2022-09-12T03:11:51.660Z,98068.84
2022-09-12T03:15:11.117Z,98069.78
2022-09-12T03:18:09.551Z,98075.88
2022-09-12T03:21:03.893Z,98068.97
2022-09-12T03:24:03.384Z,98078.91
2022-09-12T03:26:57.897Z,98092.50
2022-09-12T03:29:49.015Z,98085.59
2022-09-12T03:32:46.321Z,98084.78
2022-09-12T03:35:34.733Z,98084.94
2022-09-12T03:38:23.071Z,98085.34
2022-09-12T03:41:11.442Z,98085.53
2022-09-12T03:43:59.814Z,98095.91
2022-09-12T03:46:48.355Z,98097.28
2022-09-12T03:49:38.259Z,98101.41
2022-09-12T03:52:26.671Z,98102.44
2022-09-12T03:55:15.101Z,98102.44
2022-09-12T03:58:03.393Z,98107.19
2022-09-12T04:00:51.940Z,98106.97
2022-09-12T04:03:41.292Z,98103.47
2022-09-12T04:06:31.318Z,98106.03
2022-09-12T04:09:20.514Z,98109.19
2022-09-12T04:12:09.191Z,98107.50
2022-09-12T04:14:57.535Z,98106.66
2022-09-12T04:17:45.909Z,98113.91
2022-09-12T04:20:34.209Z,98111.81
2022-09-12T04:23:24.303Z,98109.69
2022-09-12T04:26:13.877Z,98110.19
2022-09-12T04:29:03.967Z,98106.16
2022-09-12T04:31:52.556Z,98114.06
2022-09-12T04:34:40.858Z,98109.34
2022-09-12T04:37:29.204Z,98114.22
2022-09-12T04:40:19.101Z,98106.31
2022-09-12T04:43:11.178Z,98116.94
2022-09-12T04:46:06.411Z,98115.97
2022-09-12T04:48:57.037Z,98114.22
2022-09-12T04:51:46.220Z,98115.50
2022-09-12T04:54:34.552Z,98118.44
2022-09-12T04:57:24.228Z,98117.91
2022-09-12T05:00:15.022Z,98125.34
2022-09-12T05:03:03.410Z,98140.88
2022-09-12T05:05:56.266Z,98129.69
2022-09-12T05:08:45.074Z,98132.78
2022-09-12T05:12:03.633Z,98136.50
2022-09-12T05:14:53.768Z,98142.47
2022-09-12T05:17:51.277Z,98140.13
2022-09-12T05:20:39.826Z,98142.59
2022-09-12T05:23:28.824Z,98149.16
2022-09-12T05:26:19.146Z,98154.66
2022-09-12T05:29:13.374Z,98155.72
2022-09-12T05:32:03.665Z,98170.00
2022-09-12T05:34:58.263Z,98162.63
2022-09-12T05:37:46.657Z,98171.38
2022-09-12T05:40:41.203Z,98159.72
2022-09-12T05:43:29.469Z,98166.16
2022-09-12T05:46:26.414Z,98162.28
2022-09-12T05:49:16.258Z,98162.34
2022-09-12T05:52:10.750Z,98163.31
2022-09-12T05:54:59.125Z,98147.22
2022-09-12T05:57:54.151Z,98158.34
2022-09-12T06:00:42.559Z,98158.69
2022-09-12T06:03:40.883Z,98158.81
2022-09-12T06:06:32.500Z,98174.34
2022-09-12T06:09:20.921Z,98157.72
2022-09-12T06:12:09.779Z,98156.16
2022-09-12T06:14:58.261Z,98162.97
2022-09-12T06:17:51.199Z,98167.84
2022-09-12T06:20:39.821Z,98164.47
2022-09-12T06:23:30.313Z,98163.84
2022-09-12T06:26:21.771Z,98154.28
2022-09-12T06:29:13.395Z,98163.19
2022-09-12T06:32:01.904Z,98159.94
2022-09-12T06:34:50.979Z,98170.56
2022-09-12T06:37:39.228Z,98165.91
2022-09-12T06:40:29.879Z,98163.75
2022-09-12T06:43:18.254Z,98175.97
2022-09-12T06:46:07.711Z,98182.78
2022-09-12T06:48:57.216Z,98194.25
2022-09-12T06:51:45.849Z,98190.72
2022-09-12T06:54:34.195Z,98182.78
2022-09-12T06:57:31.566Z,98191.50
2022-09-12T07:00:20.181Z,98193.28
2022-09-12T07:03:08.663Z,98176.22
2022-09-12T07:06:07.558Z,98215.78
2022-09-12T07:08:55.830Z,98206.34
2022-09-12T07:11:44.935Z,98210.44
2022-09-12T07:14:40.439Z,98210.09
2022-09-12T07:17:28.734Z,98208.84
2022-09-12T07:20:23.303Z,98192.44
2022-09-12T07:23:11.797Z,98219.25
2022-09-12T07:26:11.629Z,98191.97
2022-09-12T07:29:19.117Z,98201.28
2022-09-12T07:32:10.232Z,98204.03
2022-09-12T07:35:05.161Z,98202.03
2022-09-12T07:37:53.587Z,98229.31
2022-09-12T07:40:48.544Z,98235.16
2022-09-12T07:43:36.854Z,98215.94
2022-09-12T07:46:26.689Z,98219.13
2022-09-12T07:49:16.478Z,98212.06
2022-09-12T07:52:04.993Z,98221.69
2022-09-12T07:54:53.442Z,98208.94
2022-09-12T07:57:41.962Z,98207.03
2022-09-12T08:00:39.026Z,98194.53
2022-09-12T08:03:27.383Z,98242.19
2022-09-12T08:06:28.162Z,98228.53
2022-09-12T08:09:17.588Z,98249.91
2022-09-12T08:12:15.151Z,98230.19
2022-09-12T08:15:03.806Z,98230.31
2022-09-12T08:18:01.807Z,98219.78
2022-09-12T08:20:50.146Z,98228.78
2022-09-12T08:23:39.891Z,98229.16
2022-09-12T08:26:37.295Z,98237.03
2022-09-12T08:29:26.013Z,98249.41
2022-09-12T08:32:23.363Z,98242.53
2022-09-12T08:35:12.009Z,98225.47
2022-09-12T08:38:09.379Z,98214.09
2022-09-12T08:41:08.294Z,98241.16
2022-09-12T08:44:09.372Z,98217.81
2022-09-12T08:47:17.771Z,98222.53
2022-09-12T08:50:15.386Z,98209.94
2022-09-12T08:53:05.649Z,98248.75
2022-09-12T08:56:08.684Z,98246.44
2022-09-12T08:58:57.006Z,98245.50
2022-09-12T09:02:01.007Z,98232.63
2022-09-12T09:04:52.865Z,98224.03
2022-09-12T09:08:08.955Z,98225.31
2022-09-12T09:11:04.583Z,98219.94
2022-09-12T09:14:26.600Z,98206.16
2022-09-12T09:17:24.100Z,98250.28
2022-09-12T09:20:22.448Z,98255.31
2022-09-12T09:23:17.534Z,98230.13
2022-09-12T09:26:09.613Z,98217.00
2022-09-12T09:29:03.974Z,98204.81
2022-09-12T09:31:56.010Z,98224.28
2022-09-12T09:34:44.597Z,98218.97
2022-09-12T09:37:45.332Z,98218.00
2022-09-12T09:40:46.384Z,98222.81
2022-09-12T09:43:34.998Z,98237.63
2022-09-12T09:46:25.145Z,98227.34
2022-09-12T09:49:23.944Z,98216.69
2022-09-12T09:52:15.612Z,98208.63
2022-09-12T09:55:05.242Z,98221.63
2022-09-12T09:57:59.602Z,98219.56
2022-09-12T10:00:48.004Z,98230.41
2022-09-12T10:03:51.775Z,98207.78
2022-09-12T10:06:40.951Z,98213.69
2022-09-12T10:09:38.245Z,98215.63
2022-09-12T10:12:29.334Z,98230.88
2022-09-12T10:15:27.770Z,98232.69
2022-09-12T10:18:34.842Z,98226.31
2022-09-12T10:21:30.991Z,98224.63
2022-09-12T10:24:24.334Z,98219.56
2022-09-12T10:27:20.334Z,98213.53
2022-09-12T10:30:18.984Z,98220.41
2022-09-12T10:33:12.817Z,98214.97
2022-09-12T10:36:01.803Z,98224.25
2022-09-12T10:38:54.168Z,98199.47
2022-09-12T10:41:42.934Z,98204.94
2022-09-12T10:44:40.071Z,98224.91
2022-09-12T10:47:32.788Z,98219.69
2022-09-12T10:50:27.307Z,98215.59
2022-09-12T10:53:20.399Z,98211.31
2022-09-12T10:56:13.660Z,98228.09
2022-09-12T10:59:24.323Z,98227.25
2022-09-12T11:02:21.526Z,98223.66
2022-09-12T11:05:20.669Z,98244.91
2022-09-12T11:08:29.839Z,98211.34
2022-09-12T11:11:38.359Z,98224.13
2022-09-12T11:14:41.285Z,98231.16
2022-09-12T11:17:42.285Z,98207.63
2022-09-12T11:20:44.776Z,98198.44
2022-09-12T11:24:15.081Z,98216.66
2022-09-12T11:27:21.123Z,98220.16
2022-09-12T11:30:13.110Z,98223.50
2022-09-12T11:33:29.687Z,98202.72
2022-09-12T11:36:33.625Z,98212.13
2022-09-12T11:39:25.234Z,98217.28
2022-09-12T11:42:20.779Z,98213.88
2022-09-12T11:45:16.520Z,98230.50
2022-09-12T11:48:12.916Z,98234.84
2022-09-12T11:51:04.648Z,98235.19
2022-09-12T11:54:05.889Z,98219.97
2022-09-12T11:57:03.655Z,98231.38
2022-09-12T11:59:59.255Z,98221.09
2022-09-12T12:03:00.008Z,98212.59
2022-09-12T12:05:53.636Z,98202.31
2022-09-12T12:08:44.325Z,98206.94
2022-09-12T12:11:36.870Z,98227.88
2022-09-12T12:14:28.981Z,98240.13
2022-09-12T12:17:21.039Z,98224.09
2022-09-12T12:20:17.911Z,98227.84
2022-09-12T12:23:06.300Z,98225.41
2022-09-12T12:26:05.462Z,98200.75
2022-09-12T12:29:00.411Z,98194.22
2022-09-12T12:32:24.044Z,98211.31
2022-09-12T12:35:40.908Z,98204.50
2022-09-12T12:38:31.585Z,98241.03
2022-09-12T12:41:45.785Z,98240.06
2022-09-12T12:44:51.507Z,98215.53
2022-09-12T12:47:46.892Z,98202.72
2022-09-12T12:50:35.634Z,98212.03
2022-09-12T12:53:30.274Z,98234.31
2022-09-12T12:56:40.636Z,98195.66
2022-09-12T12:59:29.700Z,98235.75
2022-09-12T13:02:32.478Z,98215.41
2022-09-12T13:05:24.659Z,98216.69
2022-09-12T13:08:31.245Z,98219.78
2022-09-12T13:11:31.723Z,98229.13
2022-09-12T13:14:37.127Z,98196.69
2022-09-12T13:17:35.833Z,98183.81
2022-09-12T13:20:30.260Z,98225.91
2022-09-12T13:23:23.627Z,98189.22
2022-09-12T13:26:14.410Z,98196.56
2022-09-12T13:29:16.255Z,98191.69
2022-09-12T13:32:05.173Z,98228.19
2022-09-12T13:35:07.952Z,98209.44
2022-09-12T13:38:05.715Z,98180.25
2022-09-12T13:41:11.998Z,98154.78
2022-09-12T13:44:01.917Z,98188.06
2022-09-12T13:47:00.079Z,98195.69
2022-09-12T13:49:49.822Z,98196.34
2022-09-12T13:52:49.488Z,98170.75
2022-09-12T13:55:42.492Z,98181.28
2022-09-12T13:58:33.301Z,98177.31
2022-09-12T14:01:22.642Z,98185.34
2022-09-12T14:04:36.897Z,98184.50
2022-09-12T14:07:27.476Z,98182.22
2022-09-12T14:10:20.105Z,98200.66
2022-09-12T14:13:16.970Z,98158.09
2022-09-12T14:16:09.974Z,98170.16
2022-09-12T14:18:59.913Z,98189.56
2022-09-12T14:21:50.095Z,98180.16
2022-09-12T14:24:39.260Z,98175.53
2022-09-12T14:27:45.838Z,98180.97
2022-09-12T14:30:37.584Z,98177.28
2022-09-12T14:33:26.012Z,98178.84
2022-09-12T14:36:22.196Z,98178.47
2022-09-12T14:39:21.912Z,98169.94
2022-09-12T14:42:15.123Z,98175.19
2022-09-12T14:45:06.811Z,98176.91
2022-09-12T14:47:58.289Z,98192.06
2022-09-12T14:50:50.565Z,98166.78
2022-09-12T14:53:39.475Z,98198.34
2022-09-12T14:56:41.387Z,98172.25
2022-09-12T14:59:37.500Z,98167.53
2022-09-12T15:02:28.955Z,98172.06
2022-09-12T15:05:28.911Z,98175.81
2022-09-12T15:08:17.417Z,98194.16
2022-09-12T15:11:11.643Z,98179.34
2022-09-12T15:14:00.017Z,98178.88
2022-09-12T15:16:54.632Z,98173.88
2022-09-12T15:19:42.946Z,98154.19
2022-09-12T15:22:34.439Z,98164.59
2022-09-12T15:25:22.786Z,98173.41
2022-09-12T15:28:17.925Z,98166.22
2022-09-12T15:31:11.672Z,98170.47
2022-09-12T15:34:03.365Z,98162.69
2022-09-12T15:36:51.830Z,98178.03
2022-09-12T15:39:48.033Z,98178.16
2022-09-12T15:42:36.522Z,98182.66
2022-09-12T15:45:28.331Z,98173.34
2022-09-12T15:48:16.713Z,98183.06
2022-09-12T15:51:05.340Z,98175.91
2022-09-12T15:53:53.755Z,98178.16
2022-09-12T15:56:44.099Z,98170.41
2022-09-12T15:59:41.513Z,98157.09
2022-09-12T16:02:29.943Z,98171.22
2022-09-12T16:05:27.837Z,98178.72
2022-09-12T16:08:16.210Z,98173.59
2022-09-12T16:11:19.983Z,98186.41
2022-09-12T16:14:09.901Z,98175.56
2022-09-12T16:16:58.464Z,98185.09
2022-09-12T16:19:46.855Z,98190.81
2022-09-12T16:22:35.382Z,98189.41
2022-09-12T16:25:23.716Z,98188.22
2022-09-12T16:28:12.333Z,98182.09
2022-09-12T16:31:03.565Z,98184.28
2022-09-12T16:34:01.167Z,98180.78
2022-09-12T16:36:49.543Z,98188.72
2022-09-12T16:39:49.000Z,98184.06
2022-09-12T16:42:39.682Z,98193.59
2022-09-12T16:45:31.484Z,98184.19
2022-09-12T16:48:21.357Z,98193.56
2022-09-12T16:51:09.865Z,98188.88
2022-09-12T16:53:58.329Z,98193.72
2022-09-12T16:56:46.749Z,98199.38
2022-09-12T16:59:35.076Z,98197.72
2022-09-12T17:02:23.463Z,98200.50
2022-09-12T17:05:13.196Z,98200.19
2022-09-12T17:08:01.615Z,98203.56
2022-09-12T17:10:49.922Z,98209.41
2022-09-12T17:14:06.170Z,98200.41
2022-09-12T17:16:54.966Z,98209.66
2022-09-12T17:19:52.926Z,98216.81
2022-09-12T17:22:42.845Z,98211.56
2022-09-12T17:25:32.620Z,98211.50
2022-09-12T17:28:21.663Z,98220.66
2022-09-12T17:31:13.826Z,98216.09
2022-09-12T17:34:03.312Z,98224.44
2022-09-12T17:36:57.709Z,98217.88
2022-09-12T17:39:47.692Z,98222.66
2022-09-12T17:42:42.768Z,98224.69
2022-09-12T17:45:31.830Z,98216.94
2022-09-12T17:48:26.380Z,98216.53
2022-09-12T17:51:16.434Z,98225.09
2022-09-12T17:54:12.932Z,98236.44
2022-09-12T17:57:05.026Z,98233.66
2022-09-12T17:59:53.915Z,98239.50
2022-09-12T18:02:42.338Z,98237.63
2022-09-12T18:05:31.160Z,98234.69
2022-09-12T18:08:20.322Z,98235.06
2022-09-12T18:11:15.099Z,98234.34
2022-09-12T18:14:05.275Z,98241.09
2022-09-12T18:17:00.478Z,98245.78
2022-09-12T18:19:53.391Z,98240.25
2022-09-12T18:22:42.083Z,98256.00
2022-09-12T18:25:30.881Z,98251.50
2022-09-12T18:28:20.202Z,98250.00
2022-09-12T18:31:18.077Z,98251.25
2022-09-12T18:34:12.653Z,98254.75
2022-09-12T18:39:31.467Z,98248.03
2022-09-12T18:42:19.774Z,98249.41
2022-09-12T18:45:17.537Z,98249.69
2022-09-12T18:48:06.302Z,98252.41
2022-09-12T18:51:06.489Z,98248.78
2022-09-12T18:53:57.157Z,98249.25
2022-09-12T18:56:48.304Z,98249.50
2022-09-12T18:59:36.784Z,98247.13
2022-09-12T19:02:34.916Z,98243.84
2022-09-12T19:05:23.632Z,98243.84
2022-09-12T19:08:12.099Z,98248.38
2022-09-12T19:11:00.841Z,98244.41
2022-09-12T19:14:00.077Z,98252.41
2022-09-12T19:16:48.564Z,98253.50
2022-09-12T19:19:46.105Z,98237.34
2022-09-12T19:22:34.749Z,98240.56
2022-09-12T19:25:23.343Z,98246.72
2022-09-12T19:28:11.725Z,98247.28
2022-09-12T19:31:01.705Z,98244.75
2022-09-12T19:33:50.818Z,98239.94
2022-09-12T19:36:48.162Z,98230.88
2022-09-12T19:39:36.617Z,98239.47
2022-09-12T19:42:24.990Z,98252.06
2022-09-12T19:45:13.398Z,98231.13
2022-09-12T19:48:03.673Z,98231.38
2022-09-12T19:50:52.081Z,98241.22
2022-09-12T19:53:41.042Z,98230.88
2022-09-12T19:56:35.449Z,98230.81
2022-09-12T19:59:23.913Z,98226.31
2022-09-12T20:02:18.456Z,98221.28
2022-09-12T20:05:09.273Z,98224.06
2022-09-12T20:07:57.826Z,98224.06
2022-09-12T20:10:57.279Z,98222.03
2022-09-12T20:13:46.438Z,98216.00
2022-09-12T20:16:45.599Z,98211.94
2022-09-12T20:19:34.348Z,98204.41
2022-09-12T20:22:37.958Z,98205.88
2022-09-12T20:25:28.219Z,98211.69
2022-09-12T20:28:25.546Z,98203.03
2022-09-12T20:31:15.921Z,98200.22
2022-09-12T20:34:05.122Z,98201.75
2022-09-12T20:36:59.608Z,98203.28
2022-09-12T20:39:50.994Z,98198.06
2022-09-12T20:42:39.773Z,98204.38
2022-09-12T20:45:41.594Z,98202.63
2022-09-12T20:48:32.126Z,98200.34
2022-09-12T20:51:21.058Z,98197.28
2022-09-12T20:54:15.367Z,98199.84
2022-09-12T20:57:05.314Z,98201.84
2022-09-12T20:59:59.996Z,98204.81
2022-09-12T21:02:50.803Z,98201.78
2022-09-12T21:05:39.342Z,98202.84
2022-09-12T21:08:37.793Z,98201.78
2022-09-12T21:11:26.352Z,98208.13
2022-09-12T21:14:25.236Z,98209.91
2022-09-12T21:17:13.656Z,98200.09
2022-09-12T21:20:02.393Z,98204.38
2022-09-12T21:22:50.769Z,98207.88
2022-09-12T21:25:39.179Z,98211.16
2022-09-12T21:28:27.788Z,98198.72
2022-09-12T21:31:20.350Z,98205.34
2022-09-12T21:34:08.797Z,98214.59
2022-09-12T21:37:06.082Z,98207.28
2022-09-12T21:39:54.460Z,98212.28
2022-09-12T21:42:43.321Z,98203.06
2022-09-12T21:45:31.779Z,98204.41
2022-09-12T21:48:31.361Z,98201.03
2022-09-12T21:51:19.886Z,98199.16
2022-09-12T21:54:17.025Z,98199.41
2022-09-12T21:57:05.512Z,98191.81
2022-09-12T22:00:03.379Z,98201.53
2022-09-12T22:02:56.578Z,98198.97
2022-09-12T22:05:58.155Z,98188.72
2022-09-12T22:08:46.569Z,98196.91
2022-09-12T22:11:43.998Z,98195.03
2022-09-12T22:14:32.399Z,98195.75
2022-09-12T22:17:29.956Z,98187.34
2022-09-12T22:20:18.607Z,98187.25
2022-09-12T22:23:34.815Z,98180.09
2022-09-12T22:26:23.172Z,98189.38
2022-09-12T22:29:13.346Z,98179.44
2022-09-12T22:32:02.263Z,98171.03
2022-09-12T22:34:50.521Z,98174.91
2022-09-12T22:37:38.920Z,98177.44
2022-09-12T22:40:28.763Z,98169.91
2022-09-12T22:43:17.245Z,98174.81
2022-09-12T22:46:07.945Z,98169.84
2022-09-12T22:48:56.771Z,98172.19
2022-09-12T22:51:51.450Z,98174.28
2022-09-12T22:54:39.810Z,98174.63
2022-09-12T22:57:29.545Z,98163.84
2022-09-12T23:00:28.118Z,98158.50
2022-09-12T23:03:16.582Z,98147.69
2022-09-12T23:06:13.823Z,98160.22
2022-09-12T23:09:02.153Z,98162.38
2022-09-12T23:11:59.591Z,98159.28
2022-09-12T23:14:49.250Z,98157.63
2022-09-12T23:17:46.522Z,98157.09
2022-09-12T23:20:34.871Z,98159.88
2022-09-12T23:23:32.817Z,98157.22
2022-09-12T23:26:22.600Z,98154.34
2022-09-12T23:29:19.971Z,98162.38
2022-09-12T23:32:09.831Z,98160.63
2022-09-12T23:35:07.394Z,98156.78
2022-09-12T23:37:55.795Z,98159.34
2022-09-12T23:40:53.241Z,98162.22
2022-09-12T23:43:43.116Z,98168.16
2022-09-12T23:46:31.421Z,98158.34
2022-09-12T23:49:21.152Z,98163.38
2022-09-12T23:52:09.541Z,98159.25
2022-09-12T23:55:04.048Z,98169.97
2022-09-12T23:57:52.433Z,98159.44
